»·PEaware :: N9196G KBLI-C72

N9196G :: KBLI-C72

FLIGHT INFORMATION

Flight Status: Arrived
Operator: Privately registered:
United States
More flights under this callsign
Pilot: Christopher N. (41122)
Aircraft: SOCATA TBM-900
(TBM9)
More flights by this aircraft type
Origin: KBLI Bellingham Intl
United States
Destination: C72 Cross Winds
United States
More flights between these airports :: More routes between these airports
Route:
File this flight plan on PilotEdge
Remarks:
Altitude:
(Current/Filed)
13,500ft
Speed:
(Current/Filed)
230kts
Departed: 05-Jun-23 12:40 PM
Arrived: 05-Jun-23 01:37 PM
Distance/Time
Traveled:
206nm/0:57
Distance/Time
To Go:
Arrived

Flight Plot

Page will automatically refresh every two minutes.

Flight plan parsing failed; only flown route is shown


Map Options




Map Legend


Flown Route
Filed Route
Departure Airport
Arrival Airport
Navaid (VOR, NDB)
Fix

Horizontal Profiles

Position Reports

Time Latitude Longitude Heading Altitude Ground
Speed
05-Jun-23 12:29 48.790543 -122.534592 179 161ft 0kts
05-Jun-23 12:30 48.790543 -122.534592 179 161ft 0kts
05-Jun-23 12:31 48.790543 -122.534592 179 161ft 0kts
05-Jun-23 12:32 48.790543 -122.534592 179 161ft 0kts
05-Jun-23 12:33 48.790542 -122.534592 179 161ft 0kts
05-Jun-23 12:34 48.790542 -122.534592 179 161ft 0kts
05-Jun-23 12:35 48.789367 -122.535806 182 163ft 7kts
05-Jun-23 12:36 48.785374 -122.535785 178 171ft 13kts
05-Jun-23 12:37 48.783614 -122.536228 267 169ft 0kts
05-Jun-23 12:38 48.783614 -122.536228 267 169ft 0kts
05-Jun-23 12:39 48.783613 -122.536796 269 167ft 12kts
05-Jun-23 12:40 48.804002 -122.537590 355 863ft 127kts
05-Jun-23 12:41 48.807163 -122.573113 197 3644ft 143kts
05-Jun-23 12:42 48.766997 -122.578970 183 6126ft 153kts
05-Jun-23 12:43 48.724050 -122.579304 181 8820ft 161kts
05-Jun-23 12:44 48.679067 -122.579266 181 11910ft 167kts
05-Jun-23 12:45 48.624532 -122.592347 194 12530ft 236kts
05-Jun-23 12:45 48.569178 -122.598523 144 12746ft 249kts
05-Jun-23 12:47 48.553249 -122.487708 93 13518ft 245kts
05-Jun-23 12:48 48.543452 -122.382945 94 13511ft 256kts
05-Jun-23 12:49 48.533370 -122.276296 95 13508ft 258kts
05-Jun-23 12:49 48.524817 -122.186630 95 13508ft 258kts
05-Jun-23 12:50 48.514485 -122.079309 95 13498ft 259kts
05-Jun-23 12:51 48.504045 -121.971939 95 13475ft 259kts
05-Jun-23 12:53 48.491716 -121.846482 95 13473ft 258kts
05-Jun-23 12:54 48.481090 -121.739517 95 13473ft 258kts
05-Jun-23 12:54 48.472130 -121.650114 95 13473ft 258kts
05-Jun-23 12:55 48.461298 -121.543002 95 13473ft 258kts
05-Jun-23 12:56 48.450365 -121.435906 95 13473ft 259kts
05-Jun-23 12:57 48.439317 -121.328697 95 13458ft 259kts
05-Jun-23 12:58 48.428155 -121.221428 95 13445ft 259kts
05-Jun-23 12:59 48.416926 -121.114375 96 13439ft 258kts
05-Jun-23 13:00 48.405708 -121.008496 96 13432ft 256kts
05-Jun-23 13:01 48.394410 -120.902948 97 13414ft 254kts
05-Jun-23 13:02 48.383086 -120.798036 97 13379ft 254kts
05-Jun-23 13:03 48.371635 -120.692847 97 13336ft 254kts
05-Jun-23 13:04 48.360118 -120.587982 97 13314ft 254kts
05-Jun-23 13:05 48.348544 -120.483492 97 13298ft 253kts
05-Jun-23 13:06 48.336827 -120.378651 97 13307ft 256kts
05-Jun-23 13:07 48.324901 -120.272828 97 13319ft 257kts
05-Jun-23 13:08 48.312836 -120.166690 97 13325ft 257kts
05-Jun-23 13:09 48.300681 -120.060660 97 13325ft 257kts
05-Jun-23 13:10 48.288439 -119.954770 97 13326ft 257kts
05-Jun-23 13:11 48.276092 -119.848865 97 13326ft 257kts
05-Jun-23 13:12 48.263634 -119.742892 97 13326ft 258kts
05-Jun-23 13:13 48.251087 -119.637033 97 13326ft 258kts
05-Jun-23 13:14 48.238427 -119.531109 97 13327ft 258kts
05-Jun-23 13:15 48.225699 -119.425481 97 13327ft 258kts
05-Jun-23 13:16 48.212848 -119.319683 98 13326ft 258kts
05-Jun-23 13:17 48.199887 -119.213854 98 13326ft 258kts
05-Jun-23 13:18 48.186852 -119.108247 98 13326ft 258kts
05-Jun-23 13:19 48.173713 -119.002697 98 13326ft 258kts
05-Jun-23 13:20 48.160353 -118.896140 98 13327ft 262kts
05-Jun-23 13:21 48.146728 -118.788244 98 13369ft 265kts
05-Jun-23 13:22 48.132906 -118.679780 98 13520ft 267kts
05-Jun-23 13:23 48.118831 -118.570133 98 12697ft 266kts
05-Jun-23 13:24 48.104879 -118.462338 98 11707ft 262kts
05-Jun-23 13:25 48.091064 -118.356291 99 10713ft 253kts
05-Jun-23 13:26 48.077663 -118.254349 100 9707ft 248kts
05-Jun-23 13:27 48.064318 -118.153583 100 8708ft 246kts
05-Jun-23 13:28 48.050962 -118.053376 101 7710ft 245kts
05-Jun-23 13:29 48.037610 -117.953917 100 6712ft 243kts
05-Jun-23 13:30 48.024301 -117.855459 100 5719ft 242kts
05-Jun-23 13:31 48.011122 -117.758559 100 4718ft 231kts
05-Jun-23 13:32 47.999194 -117.671704 101 4483ft 199kts
05-Jun-23 13:33 47.993316 -117.597327 67 4383ft 148kts
05-Jun-23 13:34 47.998390 -117.553105 103 3227ft 103kts
05-Jun-23 13:35 47.979925 -117.528693 146 2205ft 54kts
05-Jun-23 13:36 47.975665 -117.524864 6 2205ft 0kts
05-Jun-23 13:37 47.975665 -117.524864 6 2205ft 0kts
05-Jun-23 13:38 47.975665 -117.524864 6 2205ft 0kts
05-Jun-23 13:39 47.975665 -117.524864 6 2205ft 0kts
05-Jun-23 13:40 47.975665 -117.524864 6 2205ft 0kts

Navigation Log

Ident Type
Flight plan parsing failed, navigation log unavailable